sensor_id;sensor_type;location;lat;lon;timestamp;temperature;humidity
68801;SHT31;55784;50.734;7.086;2022-12-18T00:01:33;-5.14;90.74
68801;SHT31;55784;50.734;7.086;2022-12-18T00:04:00;-5.17;90.84
68801;SHT31;55784;50.734;7.086;2022-12-18T00:06:27;-5.17;90.79
68801;SHT31;55784;50.734;7.086;2022-12-18T00:08:54;-5.21;90.88
68801;SHT31;55784;50.734;7.086;2022-12-18T00:11:22;-5.24;90.96
68801;SHT31;55784;50.734;7.086;2022-12-18T00:13:48;-5.24;90.98
68801;SHT31;55784;50.734;7.086;2022-12-18T00:16:16;-5.25;91.02
68801;SHT31;55784;50.734;7.086;2022-12-18T00:18:42;-5.27;90.99
68801;SHT31;55784;50.734;7.086;2022-12-18T00:21:09;-5.25;90.93
68801;SHT31;55784;50.734;7.086;2022-12-18T00:23:35;-5.25;91.07
68801;SHT31;55784;50.734;7.086;2022-12-18T00:26:04;-5.36;91.18
68801;SHT31;55784;50.734;7.086;2022-12-18T00:28:29;-5.34;92.01
68801;SHT31;55784;50.734;7.086;2022-12-18T00:31:02;-5.35;91.84
68801;SHT31;55784;50.734;7.086;2022-12-18T00:33:27;-5.36;91.75
68801;SHT31;55784;50.734;7.086;2022-12-18T00:35:53;-5.45;91.74
68801;SHT31;55784;50.734;7.086;2022-12-18T00:38:18;-5.49;91.88
68801;SHT31;55784;50.734;7.086;2022-12-18T00:40:43;-5.48;91.90
68801;SHT31;55784;50.734;7.086;2022-12-18T00:43:09;-5.54;91.97
68801;SHT31;55784;50.734;7.086;2022-12-18T00:45:34;-5.56;92.02
68801;SHT31;55784;50.734;7.086;2022-12-18T00:47:59;-5.63;92.12
68801;SHT31;55784;50.734;7.086;2022-12-18T00:50:25;-5.65;92.42
68801;SHT31;55784;50.734;7.086;2022-12-18T00:52:51;-5.62;92.43
68801;SHT31;55784;50.734;7.086;2022-12-18T00:55:17;-5.63;92.42
68801;SHT31;55784;50.734;7.086;2022-12-18T00:57:43;-5.63;92.49
68801;SHT31;55784;50.734;7.086;2022-12-18T01:00:11;-5.65;92.46
68801;SHT31;55784;50.734;7.086;2022-12-18T01:02:37;-5.62;92.26
68801;SHT31;55784;50.734;7.086;2022-12-18T01:05:04;-5.66;92.15
68801;SHT31;55784;50.734;7.086;2022-12-18T01:07:30;-5.68;92.14
68801;SHT31;55784;50.734;7.086;2022-12-18T01:09:55;-5.71;92.12
68801;SHT31;55784;50.734;7.086;2022-12-18T01:12:20;-5.79;92.18
68801;SHT31;55784;50.734;7.086;2022-12-18T01:14:46;-5.78;92.32
68801;SHT31;55784;50.734;7.086;2022-12-18T01:17:11;-5.82;92.29
68801;SHT31;55784;50.734;7.086;2022-12-18T01:19:36;-5.87;92.33
68801;SHT31;55784;50.734;7.086;2022-12-18T01:22:01;-5.93;92.44
68801;SHT31;55784;50.734;7.086;2022-12-18T01:24:27;-5.97;92.67
68801;SHT31;55784;50.734;7.086;2022-12-18T01:26:52;-5.96;92.99
68801;SHT31;55784;50.734;7.086;2022-12-18T01:29:17;-6.03;93.45
68801;SHT31;55784;50.734;7.086;2022-12-18T01:31:43;-6.09;93.26
68801;SHT31;55784;50.734;7.086;2022-12-18T01:34:09;-6.20;93.48
68801;SHT31;55784;50.734;7.086;2022-12-18T01:36:36;-6.24;93.46
68801;SHT31;55784;50.734;7.086;2022-12-18T01:39:05;-6.30;93.60
68801;SHT31;55784;50.734;7.086;2022-12-18T01:41:32;-6.28;93.84
68801;SHT31;55784;50.734;7.086;2022-12-18T01:44:58;-6.27;93.73
68801;SHT31;55784;50.734;7.086;2022-12-18T01:47:38;-6.38;94.23
68801;SHT31;55784;50.734;7.086;2022-12-18T01:50:13;-6.40;94.89
68801;SHT31;55784;50.734;7.086;2022-12-18T01:52:41;-6.40;94.85
68801;SHT31;55784;50.734;7.086;2022-12-18T01:55:08;-6.42;94.76
68801;SHT31;55784;50.734;7.086;2022-12-18T01:57:34;-6.42;94.62
68801;SHT31;55784;50.734;7.086;2022-12-18T02:00:07;-6.34;94.68
68801;SHT31;55784;50.734;7.086;2022-12-18T02:02:33;-6.20;94.71
68801;SHT31;55784;50.734;7.086;2022-12-18T02:04:59;-6.10;94.38
68801;SHT31;55784;50.734;7.086;2022-12-18T02:07:50;-6.18;94.10
68801;SHT31;55784;50.734;7.086;2022-12-18T02:10:24;-6.24;94.32
68801;SHT31;55784;50.734;7.086;2022-12-18T02:15:40;-6.24;94.40
68801;SHT31;55784;50.734;7.086;2022-12-18T02:18:14;-6.25;94.34
68801;SHT31;55784;50.734;7.086;2022-12-18T02:20:49;-6.14;94.04
68801;SHT31;55784;50.734;7.086;2022-12-18T02:26:33;-6.00;93.28
68801;SHT31;55784;50.734;7.086;2022-12-18T02:29:11;-6.14;93.39
68801;SHT31;55784;50.734;7.086;2022-12-18T02:31:43;-6.17;93.90
68801;SHT31;55784;50.734;7.086;2022-12-18T02:34:11;-6.24;93.97
68801;SHT31;55784;50.734;7.086;2022-12-18T02:36:40;-6.21;93.94
68801;SHT31;55784;50.734;7.086;2022-12-18T02:39:09;-6.04;93.34
68801;SHT31;55784;50.734;7.086;2022-12-18T02:41:35;-5.96;92.87
68801;SHT31;55784;50.734;7.086;2022-12-18T02:44:07;-5.90;92.56
68801;SHT31;55784;50.734;7.086;2022-12-18T02:46:37;-5.92;92.37
68801;SHT31;55784;50.734;7.086;2022-12-18T02:49:43;-5.97;92.10
68801;SHT31;55784;50.734;7.086;2022-12-18T03:01:47;-6.37;92.33
68801;SHT31;55784;50.734;7.086;2022-12-18T03:03:59;-6.33;92.36
68801;SHT31;55784;50.734;7.086;2022-12-18T03:06:40;-6.35;92.27
68801;SHT31;55784;50.734;7.086;2022-12-18T03:09:09;-6.31;92.23
68801;SHT31;55784;50.734;7.086;2022-12-18T03:11:39;-6.23;92.08
68801;SHT31;55784;50.734;7.086;2022-12-18T03:14:25;-6.13;91.93
68801;SHT31;55784;50.734;7.086;2022-12-18T03:16:54;-6.13;91.72
68801;SHT31;55784;50.734;7.086;2022-12-18T03:19:26;-6.24;91.71
68801;SHT31;55784;50.734;7.086;2022-12-18T03:21:55;-6.24;91.72
68801;SHT31;55784;50.734;7.086;2022-12-18T03:24:22;-6.34;91.68
68801;SHT31;55784;50.734;7.086;2022-12-18T03:26:52;-6.34;91.85
68801;SHT31;55784;50.734;7.086;2022-12-18T03:29:27;-6.38;91.97
68801;SHT31;55784;50.734;7.086;2022-12-18T03:32:11;-6.40;91.96
68801;SHT31;55784;50.734;7.086;2022-12-18T03:34:39;-6.45;92.00
68801;SHT31;55784;50.734;7.086;2022-12-18T03:37:05;-6.49;92.10
68801;SHT31;55784;50.734;7.086;2022-12-18T03:39:32;-6.42;92.18
68801;SHT31;55784;50.734;7.086;2022-12-18T03:42:03;-6.45;92.13
68801;SHT31;55784;50.734;7.086;2022-12-18T03:45:36;-6.49;92.19
68801;SHT31;55784;50.734;7.086;2022-12-18T03:47:49;-6.52;92.19
68801;SHT31;55784;50.734;7.086;2022-12-18T03:56:00;-6.62;92.13
68801;SHT31;55784;50.734;7.086;2022-12-18T03:58:27;-6.55;92.14
68801;SHT31;55784;50.734;7.086;2022-12-18T04:00:56;-6.44;91.85
68801;SHT31;55784;50.734;7.086;2022-12-18T04:03:26;-6.45;91.46
68801;SHT31;55784;50.734;7.086;2022-12-18T04:05:54;-6.42;91.19
68801;SHT31;55784;50.734;7.086;2022-12-18T04:08:20;-6.37;91.07
68801;SHT31;55784;50.734;7.086;2022-12-18T04:10:46;-6.41;90.91
68801;SHT31;55784;50.734;7.086;2022-12-18T04:13:12;-6.37;91.05
68801;SHT31;55784;50.734;7.086;2022-12-18T04:15:38;-6.31;90.89
68801;SHT31;55784;50.734;7.086;2022-12-18T04:18:03;-6.34;90.63
68801;SHT31;55784;50.734;7.086;2022-12-18T04:20:29;-6.37;90.73
68801;SHT31;55784;50.734;7.086;2022-12-18T04:22:55;-6.44;90.81
68801;SHT31;55784;50.734;7.086;2022-12-18T04:25:20;-6.47;91.01
68801;SHT31;55784;50.734;7.086;2022-12-18T04:27:45;-6.42;91.10
68801;SHT31;55784;50.734;7.086;2022-12-18T04:30:11;-6.48;90.98
68801;SHT31;55784;50.734;7.086;2022-12-18T04:32:36;-6.51;91.06
68801;SHT31;55784;50.734;7.086;2022-12-18T04:35:02;-6.49;91.15
68801;SHT31;55784;50.734;7.086;2022-12-18T04:37:29;-6.52;91.20
68801;SHT31;55784;50.734;7.086;2022-12-18T04:39:54;-6.47;91.12
68801;SHT31;55784;50.734;7.086;2022-12-18T04:42:20;-6.40;90.82
68801;SHT31;55784;50.734;7.086;2022-12-18T04:44:45;-6.35;90.44
68801;SHT31;55784;50.734;7.086;2022-12-18T04:47:11;-6.27;90.26
68801;SHT31;55784;50.734;7.086;2022-12-18T04:49:36;-6.25;90.21
68801;SHT31;55784;50.734;7.086;2022-12-18T04:52:02;-6.31;90.34
68801;SHT31;55784;50.734;7.086;2022-12-18T04:54:27;-6.24;90.51
68801;SHT31;55784;50.734;7.086;2022-12-18T04:56:52;-6.21;90.39
68801;SHT31;55784;50.734;7.086;2022-12-18T04:59:18;-6.20;90.23
68801;SHT31;55784;50.734;7.086;2022-12-18T05:01:43;-6.13;90.08
68801;SHT31;55784;50.734;7.086;2022-12-18T05:04:08;-6.17;89.97
68801;SHT31;55784;50.734;7.086;2022-12-18T05:06:34;-6.13;89.84
68801;SHT31;55784;50.734;7.086;2022-12-18T05:08:59;-6.18;89.87
68801;SHT31;55784;50.734;7.086;2022-12-18T05:11:24;-6.18;89.77
68801;SHT31;55784;50.734;7.086;2022-12-18T05:13:50;-6.21;89.65
68801;SHT31;55784;50.734;7.086;2022-12-18T05:16:15;-6.25;89.65
68801;SHT31;55784;50.734;7.086;2022-12-18T05:18:41;-6.27;89.72
68801;SHT31;55784;50.734;7.086;2022-12-18T05:21:06;-6.28;89.88
68801;SHT31;55784;50.734;7.086;2022-12-18T05:23:31;-6.27;89.94
68801;SHT31;55784;50.734;7.086;2022-12-18T05:25:59;-6.28;89.65
68801;SHT31;55784;50.734;7.086;2022-12-18T05:28:26;-6.31;89.74
68801;SHT31;55784;50.734;7.086;2022-12-18T05:30:54;-6.34;89.89
68801;SHT31;55784;50.734;7.086;2022-12-18T05:33:22;-6.33;89.94
68801;SHT31;55784;50.734;7.086;2022-12-18T05:35:51;-6.33;89.91
68801;SHT31;55784;50.734;7.086;2022-12-18T05:38:18;-6.33;89.94
68801;SHT31;55784;50.734;7.086;2022-12-18T05:40:43;-6.33;89.94
68801;SHT31;55784;50.734;7.086;2022-12-18T05:43:09;-6.40;90.00
68801;SHT31;55784;50.734;7.086;2022-12-18T05:45:40;-6.37;90.13
68801;SHT31;55784;50.734;7.086;2022-12-18T05:48:05;-6.34;90.07
68801;SHT31;55784;50.734;7.086;2022-12-18T05:50:34;-6.37;90.11
68801;SHT31;55784;50.734;7.086;2022-12-18T05:52:59;-6.38;90.26
68801;SHT31;55784;50.734;7.086;2022-12-18T05:55:25;-6.37;90.40
68801;SHT31;55784;50.734;7.086;2022-12-18T05:57:51;-6.34;90.32
68801;SHT31;55784;50.734;7.086;2022-12-18T06:00:16;-6.37;90.38
68801;SHT31;55784;50.734;7.086;2022-12-18T06:02:41;-6.33;90.44
68801;SHT31;55784;50.734;7.086;2022-12-18T06:05:07;-6.31;90.48
68801;SHT31;55784;50.734;7.086;2022-12-18T06:07:32;-6.24;90.40
68801;SHT31;55784;50.734;7.086;2022-12-18T06:09:58;-6.27;90.52
68801;SHT31;55784;50.734;7.086;2022-12-18T06:12:23;-6.31;90.71
68801;SHT31;55784;50.734;7.086;2022-12-18T06:14:48;-6.31;90.79
68801;SHT31;55784;50.734;7.086;2022-12-18T06:17:14;-6.34;91.04
68801;SHT31;55784;50.734;7.086;2022-12-18T06:19:39;-6.33;91.02
68801;SHT31;55784;50.734;7.086;2022-12-18T06:22:04;-6.34;91.40
68801;SHT31;55784;50.734;7.086;2022-12-18T06:24:30;-6.31;91.53
68801;SHT31;55784;50.734;7.086;2022-12-18T06:26:55;-6.34;91.72
68801;SHT31;55784;50.734;7.086;2022-12-18T06:29:20;-6.35;91.78
68801;SHT31;55784;50.734;7.086;2022-12-18T06:31:46;-6.33;91.86
68801;SHT31;55784;50.734;7.086;2022-12-18T06:34:11;-6.24;91.76
68801;SHT31;55784;50.734;7.086;2022-12-18T06:36:36;-6.21;91.58
68801;SHT31;55784;50.734;7.086;2022-12-18T06:39:02;-6.18;91.55
68801;SHT31;55784;50.734;7.086;2022-12-18T06:41:27;-6.18;91.51
68801;SHT31;55784;50.734;7.086;2022-12-18T06:43:53;-6.20;91.39
68801;SHT31;55784;50.734;7.086;2022-12-18T06:46:18;-6.20;91.37
68801;SHT31;55784;50.734;7.086;2022-12-18T06:48:46;-6.18;91.31
68801;SHT31;55784;50.734;7.086;2022-12-18T06:51:16;-6.13;91.23
68801;SHT31;55784;50.734;7.086;2022-12-18T06:53:41;-6.11;91.02
68801;SHT31;55784;50.734;7.086;2022-12-18T06:56:07;-6.14;91.01
68801;SHT31;55784;50.734;7.086;2022-12-18T06:58:32;-6.18;90.99
68801;SHT31;55784;50.734;7.086;2022-12-18T07:01:05;-6.17;90.89
68801;SHT31;55784;50.734;7.086;2022-12-18T07:03:31;-6.17;90.91
68801;SHT31;55784;50.734;7.086;2022-12-18T07:05:56;-6.06;90.64
68801;SHT31;55784;50.734;7.086;2022-12-18T07:08:22;-6.06;90.60
68801;SHT31;55784;50.734;7.086;2022-12-18T07:10:47;-6.02;90.41
68801;SHT31;55784;50.734;7.086;2022-12-18T07:13:14;-5.99;90.03
68801;SHT31;55784;50.734;7.086;2022-12-18T07:15:40;-5.97;90.10
68801;SHT31;55784;50.734;7.086;2022-12-18T07:18:05;-5.93;89.97
68801;SHT31;55784;50.734;7.086;2022-12-18T07:20:30;-5.99;90.00
68801;SHT31;55784;50.734;7.086;2022-12-18T07:22:55;-5.99;90.06
68801;SHT31;55784;50.734;7.086;2022-12-18T07:25:21;-5.96;90.26
68801;SHT31;55784;50.734;7.086;2022-12-18T07:27:46;-5.96;90.19
68801;SHT31;55784;50.734;7.086;2022-12-18T07:30:11;-5.97;90.26
68801;SHT31;55784;50.734;7.086;2022-12-18T07:32:37;-5.99;90.17
68801;SHT31;55784;50.734;7.086;2022-12-18T07:35:02;-6.02;90.21
68801;SHT31;55784;50.734;7.086;2022-12-18T07:37:28;-6.02;90.37
68801;SHT31;55784;50.734;7.086;2022-12-18T07:39:53;-5.96;90.16
68801;SHT31;55784;50.734;7.086;2022-12-18T07:42:18;-5.92;90.11
68801;SHT31;55784;50.734;7.086;2022-12-18T07:44:56;-5.93;90.10
68801;SHT31;55784;50.734;7.086;2022-12-18T07:47:21;-5.96;90.19
68801;SHT31;55784;50.734;7.086;2022-12-18T07:49:46;-5.90;90.13
68801;SHT31;55784;50.734;7.086;2022-12-18T07:52:12;-5.89;89.98
68801;SHT31;55784;50.734;7.086;2022-12-18T07:54:38;-5.90;89.97
68801;SHT31;55784;50.734;7.086;2022-12-18T07:57:03;-5.93;89.82
68801;SHT31;55784;50.734;7.086;2022-12-18T07:59:28;-5.92;89.95
68801;SHT31;55784;50.734;7.086;2022-12-18T08:01:54;-5.86;89.90
68801;SHT31;55784;50.734;7.086;2022-12-18T08:04:19;-5.78;89.72
68801;SHT31;55784;50.734;7.086;2022-12-18T08:06:45;-5.69;89.46
68801;SHT31;55784;50.734;7.086;2022-12-18T08:09:11;-5.58;89.17
68801;SHT31;55784;50.734;7.086;2022-12-18T08:11:36;-5.56;88.85
68801;SHT31;55784;50.734;7.086;2022-12-18T08:14:02;-5.39;88.48
68801;SHT31;55784;50.734;7.086;2022-12-18T08:16:27;-5.34;88.25
68801;SHT31;55784;50.734;7.086;2022-12-18T08:18:53;-5.25;87.94
68801;SHT31;55784;50.734;7.086;2022-12-18T08:21:24;-5.19;87.66
68801;SHT31;55784;50.734;7.086;2022-12-18T08:23:52;-5.11;87.42
68801;SHT31;55784;50.734;7.086;2022-12-18T08:26:19;-5.05;87.09
68801;SHT31;55784;50.734;7.086;2022-12-18T08:28:44;-4.94;86.92
68801;SHT31;55784;50.734;7.086;2022-12-18T08:31:10;-4.88;86.61
68801;SHT31;55784;50.734;7.086;2022-12-18T08:33:36;-4.76;86.38
68801;SHT31;55784;50.734;7.086;2022-12-18T08:36:03;-4.66;85.91
68801;SHT31;55784;50.734;7.086;2022-12-18T08:38:29;-4.62;85.72
68801;SHT31;55784;50.734;7.086;2022-12-18T08:41:04;-4.50;85.38
68801;SHT31;55784;50.734;7.086;2022-12-18T08:43:30;-4.42;85.30
68801;SHT31;55784;50.734;7.086;2022-12-18T08:46:23;-4.35;84.95
68801;SHT31;55784;50.734;7.086;2022-12-18T08:48:55;-4.30;84.81
68801;SHT31;55784;50.734;7.086;2022-12-18T08:51:21;-4.29;84.57
68801;SHT31;55784;50.734;7.086;2022-12-18T08:53:46;-4.16;84.26
68801;SHT31;55784;50.734;7.086;2022-12-18T08:56:12;-4.06;83.74
68801;SHT31;55784;50.734;7.086;2022-12-18T08:58:37;-4.01;83.81
68801;SHT31;55784;50.734;7.086;2022-12-18T09:01:05;-3.97;83.50
68801;SHT31;55784;50.734;7.086;2022-12-18T09:03:31;-3.91;83.18
68801;SHT31;55784;50.734;7.086;2022-12-18T09:05:56;-3.78;83.04
68801;SHT31;55784;50.734;7.086;2022-12-18T09:08:22;-3.73;82.81
68801;SHT31;55784;50.734;7.086;2022-12-18T09:10:49;-3.61;82.76
68801;SHT31;55784;50.734;7.086;2022-12-18T09:13:15;-3.51;82.34
68801;SHT31;55784;50.734;7.086;2022-12-18T09:15:46;-3.49;82.41
68801;SHT31;55784;50.734;7.086;2022-12-18T09:18:13;-3.49;82.17
68801;SHT31;55784;50.734;7.086;2022-12-18T09:20:39;-3.44;81.92
68801;SHT31;55784;50.734;7.086;2022-12-18T09:23:05;-3.39;81.86
68801;SHT31;55784;50.734;7.086;2022-12-18T09:25:31;-3.33;81.65
68801;SHT31;55784;50.734;7.086;2022-12-18T09:28:01;-3.32;81.42
68801;SHT31;55784;50.734;7.086;2022-12-18T09:30:27;-3.23;81.54
68801;SHT31;55784;50.734;7.086;2022-12-18T09:32:53;-3.12;81.09
68801;SHT31;55784;50.734;7.086;2022-12-18T09:35:18;-3.08;81.02
68801;SHT31;55784;50.734;7.086;2022-12-18T09:37:44;-2.91;80.66
68801;SHT31;55784;50.734;7.086;2022-12-18T09:40:14;-2.88;80.38
68801;SHT31;55784;50.734;7.086;2022-12-18T09:42:40;-2.85;80.23
68801;SHT31;55784;50.734;7.086;2022-12-18T09:45:12;-2.79;80.21
68801;SHT31;55784;50.734;7.086;2022-12-18T09:47:39;-2.78;79.83
68801;SHT31;55784;50.734;7.086;2022-12-18T09:50:24;-2.64;79.72
68801;SHT31;55784;50.734;7.086;2022-12-18T09:52:53;-2.60;79.47
68801;SHT31;55784;50.734;7.086;2022-12-18T09:58:04;-2.45;79.34
68801;SHT31;55784;50.734;7.086;2022-12-18T10:00:31;-2.44;79.00
68801;SHT31;55784;50.734;7.086;2022-12-18T10:03:03;-2.31;78.86
68801;SHT31;55784;50.734;7.086;2022-12-18T10:08:22;-2.19;78.46
68801;SHT31;55784;50.734;7.086;2022-12-18T10:10:51;-2.09;78.17
68801;SHT31;55784;50.734;7.086;2022-12-18T10:13:42;-2.07;77.92
68801;SHT31;55784;50.734;7.086;2022-12-18T10:16:38;-1.97;77.76
68801;SHT31;55784;50.734;7.086;2022-12-18T10:21:45;-1.94;77.23
68801;SHT31;55784;50.734;7.086;2022-12-18T10:26:52;-1.73;76.84
68801;SHT31;55784;50.734;7.086;2022-12-18T10:29:18;-1.66;76.28
68801;SHT31;55784;50.734;7.086;2022-12-18T10:31:43;-1.52;76.35
68801;SHT31;55784;50.734;7.086;2022-12-18T10:34:10;-1.45;75.86
68801;SHT31;55784;50.734;7.086;2022-12-18T10:36:36;-1.41;75.48
68801;SHT31;55784;50.734;7.086;2022-12-18T10:39:20;-1.42;75.51
68801;SHT31;55784;50.734;7.086;2022-12-18T10:41:47;-1.48;75.54
68801;SHT31;55784;50.734;7.086;2022-12-18T10:44:23;-1.42;75.74
68801;SHT31;55784;50.734;7.086;2022-12-18T10:46:50;-1.44;75.91
68801;SHT31;55784;50.734;7.086;2022-12-18T10:49:27;-1.38;76.33
68801;SHT31;55784;50.734;7.086;2022-12-18T10:52:19;-1.30;75.77
68801;SHT31;55784;50.734;7.086;2022-12-18T11:04:28;-1.15;75.41
68801;SHT31;55784;50.734;7.086;2022-12-18T11:10:05;-0.93;75.18
68801;SHT31;55784;50.734;7.086;2022-12-18T11:12:56;-1.00;75.05
68801;SHT31;55784;50.734;7.086;2022-12-18T11:19:09;-0.97;75.21
68801;SHT31;55784;50.734;7.086;2022-12-18T11:28:00;-0.87;74.90
68801;SHT31;55784;50.734;7.086;2022-12-18T11:30:30;-0.74;74.60
68801;SHT31;55784;50.734;7.086;2022-12-18T11:33:04;-0.79;74.31
68801;SHT31;55784;50.734;7.086;2022-12-18T11:35:52;-0.84;74.69
68801;SHT31;55784;50.734;7.086;2022-12-18T11:38:32;-0.77;74.65
68801;SHT31;55784;50.734;7.086;2022-12-18T11:44:21;-0.81;75.15
68801;SHT31;55784;50.734;7.086;2022-12-18T11:57:19;-0.52;73.77
68801;SHT31;55784;50.734;7.086;2022-12-18T12:00:12;-0.50;73.80
68801;SHT31;55784;50.734;7.086;2022-12-18T12:02:58;-0.66;73.76
68801;SHT31;55784;50.734;7.086;2022-12-18T12:05:31;-0.60;74.55
68801;SHT31;55784;50.734;7.086;2022-12-18T12:10:31;-0.62;74.09
68801;SHT31;55784;50.734;7.086;2022-12-18T12:16:08;-0.53;74.41
68801;SHT31;55784;50.734;7.086;2022-12-18T12:21:39;-0.54;74.33
68801;SHT31;55784;50.734;7.086;2022-12-18T12:30:16;-0.50;74.89
68801;SHT31;55784;50.734;7.086;2022-12-18T12:33:17;-0.40;74.70
68801;SHT31;55784;50.734;7.086;2022-12-18T12:38:41;-0.33;75.15
68801;SHT31;55784;50.734;7.086;2022-12-18T12:41:11;-0.29;74.62
68801;SHT31;55784;50.734;7.086;2022-12-18T12:44:01;-0.46;74.85
68801;SHT31;55784;50.734;7.086;2022-12-18T12:46:32;-0.37;75.22
68801;SHT31;55784;50.734;7.086;2022-12-18T12:49:03;-0.33;74.71
68801;SHT31;55784;50.734;7.086;2022-12-18T12:51:41;-0.32;74.57
68801;SHT31;55784;50.734;7.086;2022-12-18T12:54:23;-0.37;74.81
68801;SHT31;55784;50.734;7.086;2022-12-18T12:57:05;-0.36;74.96
68801;SHT31;55784;50.734;7.086;2022-12-18T12:59:47;-0.28;74.74
68801;SHT31;55784;50.734;7.086;2022-12-18T13:02:22;-0.15;74.63
68801;SHT31;55784;50.734;7.086;2022-12-18T13:05:05;-0.13;74.24
68801;SHT31;55784;50.734;7.086;2022-12-18T13:07:37;-0.13;74.07
68801;SHT31;55784;50.734;7.086;2022-12-18T13:13:10;0.02;73.74
68801;SHT31;55784;50.734;7.086;2022-12-18T13:15:44;0.05;73.53
68801;SHT31;55784;50.734;7.086;2022-12-18T13:18:20;0.02;73.29
68801;SHT31;55784;50.734;7.086;2022-12-18T13:30:47;-0.11;74.04
68801;SHT31;55784;50.734;7.086;2022-12-18T13:40:54;-0.16;73.55
68801;SHT31;55784;50.734;7.086;2022-12-18T13:43:46;-0.22;73.67
68801;SHT31;55784;50.734;7.086;2022-12-18T13:46:43;-0.18;73.43
68801;SHT31;55784;50.734;7.086;2022-12-18T13:51:41;-0.28;73.86
68801;SHT31;55784;50.734;7.086;2022-12-18T13:54:33;-0.37;74.20
68801;SHT31;55784;50.734;7.086;2022-12-18T13:57:01;-0.35;74.50
68801;SHT31;55784;50.734;7.086;2022-12-18T13:59:37;-0.37;74.73
68801;SHT31;55784;50.734;7.086;2022-12-18T14:02:13;-0.46;74.72
68801;SHT31;55784;50.734;7.086;2022-12-18T14:04:39;-0.52;75.18
68801;SHT31;55784;50.734;7.086;2022-12-18T14:07:13;-0.46;75.14
68801;SHT31;55784;50.734;7.086;2022-12-18T14:09:47;-0.46;75.54
68801;SHT31;55784;50.734;7.086;2022-12-18T14:12:31;-0.52;75.18
68801;SHT31;55784;50.734;7.086;2022-12-18T14:17:58;-0.62;75.36
68801;SHT31;55784;50.734;7.086;2022-12-18T14:20:32;-0.67;75.89
68801;SHT31;55784;50.734;7.086;2022-12-18T14:25:34;-0.70;76.02
68801;SHT31;55784;50.734;7.086;2022-12-18T14:39:21;-0.79;75.91
68801;SHT31;55784;50.734;7.086;2022-12-18T14:41:51;-0.79;75.57
68801;SHT31;55784;50.734;7.086;2022-12-18T16:55:04;-1.24;78.81
68801;SHT31;55784;50.734;7.086;2022-12-18T16:57:29;-1.22;78.53
68801;SHT31;55784;50.734;7.086;2022-12-18T16:59:55;-1.24;78.53
68801;SHT31;55784;50.734;7.086;2022-12-18T17:02:23;-1.30;78.69
68801;SHT31;55784;50.734;7.086;2022-12-18T17:04:51;-1.17;78.68
68801;SHT31;55784;50.734;7.086;2022-12-18T17:07:17;-1.24;78.52
68801;SHT31;55784;50.734;7.086;2022-12-18T17:09:42;-1.21;78.60
68801;SHT31;55784;50.734;7.086;2022-12-18T17:12:08;-1.18;78.62
68801;SHT31;55784;50.734;7.086;2022-12-18T17:14:34;-1.22;78.57
68801;SHT31;55784;50.734;7.086;2022-12-18T17:16:59;-1.19;78.55
68801;SHT31;55784;50.734;7.086;2022-12-18T17:19:26;-1.35;78.98
68801;SHT31;55784;50.734;7.086;2022-12-18T17:21:52;-1.32;78.79
68801;SHT31;55784;50.734;7.086;2022-12-18T17:24:18;-1.30;78.87
68801;SHT31;55784;50.734;7.086;2022-12-18T17:26:44;-1.32;78.80
68801;SHT31;55784;50.734;7.086;2022-12-18T17:29:17;-1.35;78.91
68801;SHT31;55784;50.734;7.086;2022-12-18T17:31:43;-1.31;79.04
68801;SHT31;55784;50.734;7.086;2022-12-18T17:34:10;-1.27;78.87
68801;SHT31;55784;50.734;7.086;2022-12-18T17:36:35;-1.31;78.76
68801;SHT31;55784;50.734;7.086;2022-12-18T17:39:01;-1.25;78.80
68801;SHT31;55784;50.734;7.086;2022-12-18T17:41:28;-1.22;78.91
68801;SHT31;55784;50.734;7.086;2022-12-18T17:44:01;-1.18;78.68
68801;SHT31;55784;50.734;7.086;2022-12-18T17:46:29;-1.15;78.60
68801;SHT31;55784;50.734;7.086;2022-12-18T17:48:56;-1.15;78.57
68801;SHT31;55784;50.734;7.086;2022-12-18T17:51:22;-1.24;78.78
68801;SHT31;55784;50.734;7.086;2022-12-18T17:53:47;-1.21;78.98
68801;SHT31;55784;50.734;7.086;2022-12-18T17:56:16;-1.34;79.24
68801;SHT31;55784;50.734;7.086;2022-12-18T17:58:42;-1.27;79.03
68801;SHT31;55784;50.734;7.086;2022-12-18T18:01:12;-1.34;79.12
68801;SHT31;55784;50.734;7.086;2022-12-18T18:03:37;-1.30;79.35
68801;SHT31;55784;50.734;7.086;2022-12-18T18:06:03;-1.39;79.16
68801;SHT31;55784;50.734;7.086;2022-12-18T18:08:29;-1.32;79.44
68801;SHT31;55784;50.734;7.086;2022-12-18T18:10:56;-1.35;79.45
68801;SHT31;55784;50.734;7.086;2022-12-18T18:13:42;-1.31;79.52
68801;SHT31;55784;50.734;7.086;2022-12-18T18:16:30;-1.24;79.40
68801;SHT31;55784;50.734;7.086;2022-12-18T18:18:58;-1.27;79.25
68801;SHT31;55784;50.734;7.086;2022-12-18T18:21:23;-1.21;79.30
68801;SHT31;55784;50.734;7.086;2022-12-18T18:23:49;-1.27;79.17
68801;SHT31;55784;50.734;7.086;2022-12-18T18:26:14;-1.25;79.20
68801;SHT31;55784;50.734;7.086;2022-12-18T18:28:40;-1.32;79.43
68801;SHT31;55784;50.734;7.086;2022-12-18T18:31:09;-1.31;79.22
68801;SHT31;55784;50.734;7.086;2022-12-18T18:33:34;-1.28;79.51
68801;SHT31;55784;50.734;7.086;2022-12-18T18:36:00;-1.30;79.52
68801;SHT31;55784;50.734;7.086;2022-12-18T18:38:26;-1.30;79.43
68801;SHT31;55784;50.734;7.086;2022-12-18T18:40:59;-1.19;79.18
68801;SHT31;55784;50.734;7.086;2022-12-18T18:43:25;-1.18;78.94
68801;SHT31;55784;50.734;7.086;2022-12-18T18:45:57;-1.12;79.17
68801;SHT31;55784;50.734;7.086;2022-12-18T18:48:24;-1.05;79.07
68801;SHT31;55784;50.734;7.086;2022-12-18T18:50:59;-0.96;78.85
68801;SHT31;55784;50.734;7.086;2022-12-18T18:53:28;-1.01;78.74
68801;SHT31;55784;50.734;7.086;2022-12-18T18:55:56;-0.96;78.93
68801;SHT31;55784;50.734;7.086;2022-12-18T18:58:22;-0.91;79.37
68801;SHT31;55784;50.734;7.086;2022-12-18T19:01:11;-0.87;78.57
68801;SHT31;55784;50.734;7.086;2022-12-18T19:03:38;-0.91;78.29
68801;SHT31;55784;50.734;7.086;2022-12-18T19:06:05;-0.87;78.30
68801;SHT31;55784;50.734;7.086;2022-12-18T19:08:34;-0.94;78.60
68801;SHT31;55784;50.734;7.086;2022-12-18T19:11:00;-0.93;78.46
68801;SHT31;55784;50.734;7.086;2022-12-18T19:13:28;-0.87;78.67
68801;SHT31;55784;50.734;7.086;2022-12-18T19:16:06;-0.83;78.62
68801;SHT31;55784;50.734;7.086;2022-12-18T19:18:32;-0.80;78.25
68801;SHT31;55784;50.734;7.086;2022-12-18T19:20:59;-0.76;78.38
68801;SHT31;55784;50.734;7.086;2022-12-18T19:23:25;-0.77;78.10
68801;SHT31;55784;50.734;7.086;2022-12-18T19:25:54;-0.87;78.79
68801;SHT31;55784;50.734;7.086;2022-12-18T19:28:21;-0.81;78.53
68801;SHT31;55784;50.734;7.086;2022-12-18T19:30:54;-0.76;78.36
68801;SHT31;55784;50.734;7.086;2022-12-18T19:33:21;-0.79;78.42
68801;SHT31;55784;50.734;7.086;2022-12-18T19:35:49;-0.66;78.30
68801;SHT31;55784;50.734;7.086;2022-12-18T19:38:14;-0.69;77.92
68801;SHT31;55784;50.734;7.086;2022-12-18T19:40:40;-0.62;77.83
68801;SHT31;55784;50.734;7.086;2022-12-18T19:43:09;-0.62;77.84
68801;SHT31;55784;50.734;7.086;2022-12-18T19:45:34;-0.67;78.02
68801;SHT31;55784;50.734;7.086;2022-12-18T19:48:00;-0.60;78.00
68801;SHT31;55784;50.734;7.086;2022-12-18T19:50:26;-0.60;77.99
68801;SHT31;55784;50.734;7.086;2022-12-18T19:52:51;-0.56;78.01
68801;SHT31;55784;50.734;7.086;2022-12-18T19:55:16;-0.53;78.18
68801;SHT31;55784;50.734;7.086;2022-12-18T19:57:43;-0.46;78.12
68801;SHT31;55784;50.734;7.086;2022-12-18T20:00:18;-0.50;78.03